createdAt,value
2024-02-20T00:00:39.304Z,740.00
2024-02-20T00:01:39.305Z,735.00
2024-02-20T00:02:39.269Z,741.00
2024-02-20T00:03:39.346Z,744.00
2024-02-20T00:04:39.551Z,748.00
2024-02-20T00:05:39.551Z,748.00
2024-02-20T00:06:39.536Z,749.00
2024-02-20T00:07:39.640Z,752.00
2024-02-20T00:08:39.544Z,743.00
2024-02-20T00:09:39.572Z,754.00
2024-02-20T00:10:39.711Z,749.00
2024-02-20T00:11:39.776Z,746.00
2024-02-20T00:12:39.727Z,744.00
2024-02-20T00:13:39.832Z,742.00
2024-02-20T00:14:39.800Z,737.00
2024-02-20T00:15:39.860Z,746.00
2024-02-20T00:16:39.951Z,744.00
2024-02-20T00:17:39.924Z,745.00
2024-02-20T00:18:39.979Z,746.00
2024-02-20T00:19:40.045Z,744.00
2024-02-20T00:20:40.037Z,741.00
2024-02-20T00:21:40.042Z,743.00
2024-02-20T00:22:40.157Z,753.00
2024-02-20T00:23:40.142Z,753.00
2024-02-20T00:24:40.173Z,744.00
2024-02-20T00:25:40.298Z,742.00
2024-02-20T00:26:40.259Z,734.00
2024-02-20T00:27:40.304Z,739.00
2024-02-20T00:28:40.373Z,739.00
2024-02-20T00:29:40.393Z,734.00
2024-02-20T00:30:40.483Z,728.00
2024-02-20T00:31:40.513Z,740.00
2024-02-20T00:32:40.602Z,731.00
2024-02-20T00:33:40.648Z,731.00
2024-02-20T00:34:40.704Z,732.00
2024-02-20T00:36:40.707Z,730.00
2024-02-20T00:37:40.825Z,728.00
2024-02-20T00:38:40.768Z,733.00
2024-02-20T00:39:40.832Z,735.00
2024-02-20T00:40:41.116Z,734.00
2024-02-20T00:41:40.926Z,731.00
2024-02-20T00:42:40.958Z,740.00
2024-02-20T00:43:41.047Z,732.00
2024-02-20T00:44:41.050Z,731.00
2024-02-20T00:45:41.157Z,733.00
2024-02-20T00:46:41.216Z,736.00
2024-02-20T00:47:41.248Z,733.00
2024-02-20T00:48:41.326Z,731.00
2024-02-20T00:49:41.391Z,735.00
2024-02-20T00:50:41.331Z,732.00
2024-02-20T00:51:41.403Z,734.00
2024-02-20T00:52:41.486Z,735.00
2024-02-20T00:53:41.482Z,738.00
2024-02-20T00:54:41.612Z,739.00
2024-02-20T00:55:41.684Z,731.00
2024-02-20T00:56:41.628Z,730.00
2024-02-20T00:57:41.678Z,728.00
2024-02-20T00:58:41.770Z,732.00
2024-02-20T00:59:41.769Z,730.00
2024-02-20T01:00:41.880Z,731.00
2024-02-20T01:01:41.986Z,737.00
2024-02-20T01:03:04.951Z,736.00
2024-02-20T01:03:41.910Z,737.00
2024-02-20T01:04:42.266Z,741.00
2024-02-20T01:05:42.023Z,745.00
2024-02-20T01:06:41.947Z,751.00
2024-02-20T01:07:41.973Z,758.00
2024-02-20T01:08:41.910Z,756.00
2024-02-20T01:09:41.895Z,747.00
2024-02-20T01:10:42.004Z,746.00
2024-02-20T01:11:42.052Z,746.00
2024-02-20T01:12:42.087Z,745.00
2024-02-20T01:13:42.148Z,740.00
2024-02-20T01:14:42.221Z,743.00
2024-02-20T01:15:42.253Z,733.00
2024-02-20T01:16:42.345Z,739.00
2024-02-20T01:17:42.420Z,739.00
2024-02-20T01:18:42.451Z,734.00
2024-02-20T01:19:42.508Z,734.00
2024-02-20T01:20:42.582Z,732.00
2024-02-20T01:21:42.576Z,733.00
2024-02-20T01:22:42.743Z,732.00
2024-02-20T01:23:42.706Z,735.00
2024-02-20T01:24:42.764Z,733.00
2024-02-20T01:25:42.878Z,736.00
2024-02-20T01:26:42.885Z,727.00
2024-02-20T01:27:42.965Z,732.00
2024-02-20T01:28:43.096Z,740.00
2024-02-20T01:29:43.083Z,735.00
2024-02-20T01:30:43.152Z,730.00
2024-02-20T01:31:43.252Z,737.00
2024-02-20T01:32:43.293Z,731.00
2024-02-20T01:33:43.352Z,731.00
2024-02-20T01:34:43.402Z,745.00
2024-02-20T01:35:43.424Z,727.00
2024-02-20T01:36:43.482Z,731.00
2024-02-20T01:37:43.673Z,733.00
2024-02-20T01:38:43.599Z,734.00
2024-02-20T01:39:43.676Z,730.00
2024-02-20T01:40:43.761Z,729.00
2024-02-20T01:41:43.764Z,729.00
2024-02-20T01:42:43.829Z,733.00
2024-02-20T01:43:43.893Z,728.00
2024-02-20T01:44:43.984Z,735.00
2024-02-20T01:45:44.048Z,729.00
2024-02-20T01:46:44.127Z,731.00
2024-02-20T01:47:44.221Z,737.00
2024-02-20T01:48:44.332Z,735.00
2024-02-20T01:49:44.453Z,734.00
2024-02-20T01:50:44.517Z,739.00
2024-02-20T01:51:44.381Z,735.00
2024-02-20T01:52:44.406Z,729.00
2024-02-20T01:53:44.491Z,745.00
2024-02-20T01:54:44.538Z,736.00
2024-02-20T01:55:44.633Z,738.00
2024-02-20T01:56:44.639Z,738.00
2024-02-20T01:57:44.693Z,742.00
2024-02-20T01:58:44.756Z,740.00
2024-02-20T01:59:44.818Z,736.00
2024-02-20T02:00:44.944Z,736.00
2024-02-20T02:01:44.968Z,736.00
2024-02-20T02:02:44.974Z,737.00
2024-02-20T02:03:45.110Z,740.00
2024-02-20T02:04:45.267Z,736.00
2024-02-20T02:05:45.401Z,737.00
2024-02-20T02:06:45.230Z,741.00
2024-02-20T02:07:45.305Z,740.00
2024-02-20T02:08:45.316Z,736.00
2024-02-20T02:09:45.390Z,737.00
2024-02-20T02:10:46.008Z,739.00
2024-02-20T02:11:45.556Z,735.00
2024-02-20T02:12:45.554Z,736.00
2024-02-20T02:13:45.615Z,737.00
2024-02-20T02:14:45.681Z,738.00
2024-02-20T02:15:45.767Z,743.00
2024-02-20T02:16:45.836Z,739.00
2024-02-20T02:17:45.951Z,725.00
2024-02-20T02:18:46.000Z,740.00
2024-02-20T02:19:45.959Z,725.00
2024-02-20T02:20:46.037Z,734.00
2024-02-20T02:21:46.077Z,729.00
2024-02-20T02:22:46.145Z,732.00
2024-02-20T02:23:46.203Z,732.00
2024-02-20T02:24:46.254Z,735.00
2024-02-20T02:25:46.352Z,728.00
2024-02-20T02:26:46.369Z,732.00
2024-02-20T02:27:46.434Z,732.00
2024-02-20T02:28:46.497Z,734.00
2024-02-20T02:29:46.544Z,731.00
2024-02-20T02:30:46.609Z,739.00
2024-02-20T02:31:46.655Z,724.00
2024-02-20T02:32:46.767Z,732.00
2024-02-20T02:33:46.928Z,735.00
2024-02-20T02:34:46.933Z,725.00
2024-02-20T02:35:46.915Z,725.00
2024-02-20T02:36:46.921Z,728.00
2024-02-20T02:37:46.999Z,731.00
2024-02-20T02:38:47.068Z,727.00
2024-02-20T02:39:47.105Z,727.00
2024-02-20T02:40:47.177Z,729.00
2024-02-20T02:41:47.205Z,724.00
2024-02-20T02:42:47.274Z,731.00
2024-02-20T02:43:47.352Z,731.00
2024-02-20T02:44:47.366Z,733.00
2024-02-20T02:45:47.475Z,729.00
2024-02-20T02:46:47.491Z,725.00
2024-02-20T02:47:47.608Z,727.00
2024-02-20T02:48:47.643Z,724.00
2024-02-20T02:49:47.873Z,724.00
2024-02-20T02:50:47.744Z,727.00
2024-02-20T02:51:47.788Z,735.00
2024-02-20T02:52:47.864Z,721.00
2024-02-20T02:53:47.903Z,723.00
2024-02-20T02:54:47.953Z,733.00
2024-02-20T02:55:48.050Z,725.00
2024-02-20T02:56:48.066Z,734.00
2024-02-20T02:57:48.177Z,722.00
2024-02-20T02:58:48.186Z,725.00
2024-02-20T02:59:48.313Z,717.00
2024-02-20T03:00:48.355Z,728.00
2024-02-20T03:01:48.486Z,719.00
2024-02-20T03:02:48.518Z,725.00
2024-02-20T03:03:48.483Z,732.00
2024-02-20T03:04:48.574Z,719.00
2024-02-20T03:05:48.616Z,724.00
2024-02-20T03:06:49.008Z,724.00
2024-02-20T03:07:48.975Z,724.00
2024-02-20T03:08:48.889Z,724.00
2024-02-20T03:09:48.880Z,722.00
2024-02-20T03:10:49.048Z,730.00
2024-02-20T03:11:48.973Z,720.00
2024-02-20T03:12:49.013Z,720.00
2024-02-20T03:13:49.152Z,715.00
2024-02-20T03:14:49.912Z,718.00
2024-02-20T03:15:49.203Z,717.00
2024-02-20T03:16:49.237Z,723.00
2024-02-20T03:17:49.331Z,727.00
2024-02-20T03:18:49.416Z,715.00
2024-02-20T03:19:49.485Z,712.00
2024-02-20T03:20:49.509Z,724.00
2024-02-20T03:21:49.500Z,720.00
2024-02-20T03:22:49.577Z,702.00
2024-02-20T03:23:49.633Z,713.00
2024-02-20T03:24:49.690Z,710.00
2024-02-20T03:25:49.771Z,709.00
2024-02-20T03:26:49.789Z,706.00
2024-02-20T03:27:49.843Z,710.00
2024-02-20T03:28:49.890Z,703.00
2024-02-20T03:29:49.970Z,706.00
2024-02-20T03:30:50.060Z,707.00
2024-02-20T03:31:50.042Z,712.00
2024-02-20T03:32:50.167Z,710.00
2024-02-20T03:33:50.291Z,701.00
2024-02-20T03:34:50.262Z,702.00
2024-02-20T03:35:50.315Z,709.00
2024-02-20T03:36:50.356Z,717.00
2024-02-20T03:37:50.404Z,705.00
2024-02-20T03:38:50.459Z,699.00
2024-02-20T03:39:50.555Z,705.00
2024-02-20T03:40:50.614Z,706.00
2024-02-20T03:41:50.632Z,698.00
2024-02-20T03:42:50.739Z,703.00
2024-02-20T03:43:50.754Z,709.00
2024-02-20T03:44:50.816Z,706.00
2024-02-20T03:45:50.952Z,703.00
2024-02-20T03:46:50.915Z,704.00
2024-02-20T03:47:51.064Z,710.00
2024-02-20T03:48:51.150Z,696.00
2024-02-20T03:49:51.223Z,694.00
2024-02-20T03:50:51.190Z,704.00
2024-02-20T03:51:51.260Z,703.00
2024-02-20T03:52:51.255Z,699.00
2024-02-20T03:53:51.341Z,701.00
2024-02-20T03:54:51.395Z,709.00
2024-02-20T03:55:51.582Z,710.00
2024-02-20T03:56:51.500Z,707.00
2024-02-20T03:57:51.599Z,708.00
2024-02-20T03:58:51.628Z,709.00
2024-02-20T03:59:51.692Z,700.00
2024-02-20T04:00:51.903Z,702.00
2024-02-20T04:01:51.852Z,701.00
2024-02-20T04:02:51.846Z,698.00
2024-02-20T04:03:52.044Z,701.00
2024-02-20T04:04:52.003Z,710.00
2024-02-20T04:05:52.119Z,706.00
2024-02-20T04:06:52.171Z,701.00
2024-02-20T04:07:52.170Z,706.00
2024-02-20T04:08:52.216Z,701.00
2024-02-20T04:09:52.294Z,703.00
2024-02-20T04:10:52.594Z,702.00
2024-02-20T04:11:52.386Z,711.00
2024-02-20T04:12:52.503Z,705.00
2024-02-20T04:13:52.520Z,713.00
2024-02-20T04:14:52.586Z,704.00
2024-02-20T04:15:52.782Z,711.00
2024-02-20T04:16:52.678Z,702.00
2024-02-20T04:17:52.782Z,701.00
2024-02-20T04:18:52.910Z,702.00
2024-02-20T04:19:52.918Z,709.00
2024-02-20T04:20:52.960Z,717.00
2024-02-20T04:21:53.021Z,710.00
2024-02-20T04:22:53.052Z,698.00
2024-02-20T04:23:53.125Z,703.00
2024-02-20T04:24:53.223Z,701.00
2024-02-20T04:25:53.265Z,704.00
2024-02-20T04:26:53.290Z,704.00
2024-02-20T04:27:53.420Z,699.00
2024-02-20T04:28:53.415Z,702.00
2024-02-20T04:29:53.462Z,698.00
2024-02-20T04:30:53.620Z,699.00
2024-02-20T04:31:53.582Z,699.00
2024-02-20T04:32:53.681Z,705.00
2024-02-20T04:33:53.794Z,700.00
2024-02-20T04:34:53.874Z,706.00
2024-02-20T04:35:53.824Z,703.00
2024-02-20T04:37:01.203Z,600.00
2024-02-20T04:38:01.104Z,600.00
2024-02-20T04:39:01.133Z,600.00
2024-02-20T04:40:01.130Z,600.00
2024-02-20T04:41:01.119Z,600.00
2024-02-20T04:42:01.111Z,604.00
2024-02-20T04:43:01.187Z,603.00
2024-02-20T04:44:01.152Z,605.00
2024-02-20T04:45:01.142Z,607.00
2024-02-20T04:46:01.145Z,607.00
2024-02-20T04:47:01.096Z,608.00
2024-02-20T04:48:01.122Z,606.00
2024-02-20T04:49:01.242Z,603.00
2024-02-20T04:50:01.222Z,607.00
2024-02-20T04:51:01.116Z,606.00
2024-02-20T04:52:01.150Z,605.00
2024-02-20T04:53:01.113Z,606.00
2024-02-20T04:54:01.120Z,602.00
2024-02-20T04:55:01.187Z,604.00
2024-02-20T04:56:01.118Z,605.00
2024-02-20T04:57:01.136Z,602.00
2024-02-20T04:58:01.178Z,606.00
2024-02-20T04:59:01.119Z,605.00
2024-02-20T05:00:01.242Z,603.00
2024-02-20T05:01:01.178Z,603.00
2024-02-20T05:02:01.133Z,610.00
2024-02-20T05:03:01.116Z,604.00
2024-02-20T05:04:01.222Z,610.00
2024-02-20T05:05:01.181Z,610.00
2024-02-20T05:06:01.153Z,610.00
2024-02-20T05:07:01.202Z,610.00
2024-02-20T05:08:01.194Z,616.00
2024-02-20T05:09:01.123Z,613.00
2024-02-20T05:10:01.269Z,613.00
2024-02-20T05:11:01.202Z,617.00
2024-02-20T05:12:01.131Z,618.00
2024-02-20T05:13:01.189Z,612.00
2024-02-20T05:14:01.134Z,615.00
2024-02-20T05:15:01.167Z,615.00
2024-02-20T05:16:01.247Z,617.00
2024-02-20T05:17:01.170Z,617.00
2024-02-20T05:18:01.167Z,613.00
2024-02-20T05:19:01.243Z,618.00
2024-02-20T05:20:01.362Z,617.00
2024-02-20T05:21:01.159Z,619.00
2024-02-20T05:22:01.183Z,619.00
2024-02-20T05:23:01.189Z,619.00
2024-02-20T05:24:01.251Z,615.00
2024-02-20T05:25:01.292Z,617.00
2024-02-20T05:26:01.335Z,615.00
2024-02-20T05:27:01.324Z,617.00
2024-02-20T05:28:01.379Z,624.00
2024-02-20T05:29:01.397Z,618.00
2024-02-20T05:30:01.454Z,614.00
2024-02-20T05:31:01.464Z,619.00
2024-02-20T05:32:01.495Z,620.00
2024-02-20T05:33:01.529Z,620.00
2024-02-20T05:34:01.739Z,616.00
2024-02-20T05:35:01.827Z,620.00
2024-02-20T05:36:01.638Z,622.00
2024-02-20T05:37:01.758Z,619.00
2024-02-20T05:38:01.660Z,622.00
2024-02-20T05:39:01.688Z,623.00
2024-02-20T05:40:01.839Z,622.00
2024-02-20T05:41:01.760Z,621.00
2024-02-20T05:42:01.798Z,623.00
2024-02-20T05:43:01.853Z,623.00
2024-02-20T05:44:01.996Z,623.00
2024-02-20T05:45:01.942Z,625.00
2024-02-20T05:46:01.963Z,619.00
2024-02-20T05:47:01.965Z,622.00
2024-02-20T05:48:02.220Z,622.00
2024-02-20T05:49:02.575Z,625.00
2024-02-20T05:50:02.282Z,622.00
2024-02-20T05:51:02.094Z,622.00
2024-02-20T05:52:02.156Z,621.00
2024-02-20T05:53:02.151Z,625.00
2024-02-20T05:54:02.229Z,622.00
2024-02-20T05:55:02.290Z,621.00
2024-02-20T05:56:02.286Z,626.00
2024-02-20T05:57:02.293Z,627.00
2024-02-20T05:58:02.360Z,623.00
2024-02-20T05:59:02.343Z,627.00
2024-02-20T06:00:02.404Z,628.00
2024-02-20T06:01:02.624Z,626.00
2024-02-20T06:02:02.526Z,624.00
2024-02-20T06:03:02.485Z,632.00
2024-02-20T06:04:02.575Z,625.00
2024-02-20T06:05:02.638Z,627.00
2024-02-20T06:06:02.726Z,631.00
2024-02-20T06:07:02.734Z,592.00
2024-02-20T06:08:02.668Z,574.00
2024-02-20T06:09:02.682Z,567.00
2024-02-20T06:10:02.761Z,580.00
2024-02-20T06:11:02.790Z,586.00
2024-02-20T06:12:02.835Z,598.00
2024-02-20T06:13:02.908Z,601.00
2024-02-20T06:14:02.899Z,602.00
2024-02-20T06:15:04.795Z,609.00
2024-02-20T06:16:02.977Z,621.00
2024-02-20T06:17:02.945Z,632.00
2024-02-20T06:18:03.009Z,645.00
2024-02-20T06:19:03.003Z,655.00
2024-02-20T06:20:03.176Z,663.00
2024-02-20T06:21:03.024Z,669.00
2024-02-20T06:22:03.016Z,700.00
2024-02-20T06:23:02.943Z,721.00
2024-02-20T06:24:02.975Z,734.00
2024-02-20T06:25:02.981Z,753.00
2024-02-20T06:26:02.996Z,763.00
2024-02-20T06:27:02.970Z,781.00
2024-02-20T06:28:03.002Z,806.00
2024-02-20T06:29:03.059Z,820.00
2024-02-20T06:30:03.139Z,833.00
2024-02-20T06:31:03.072Z,839.00
2024-02-20T06:32:02.969Z,861.00
2024-02-20T06:33:03.093Z,863.00
2024-02-20T06:34:03.177Z,876.00
2024-02-20T06:35:03.013Z,883.00
2024-02-20T06:36:03.014Z,896.00
2024-02-20T06:37:03.017Z,915.00
2024-02-20T06:38:03.004Z,913.00
2024-02-20T06:39:02.966Z,918.00
2024-02-20T06:40:02.987Z,936.00
2024-02-20T06:41:03.436Z,941.00
2024-02-20T06:42:02.961Z,950.00
2024-02-20T06:43:02.995Z,979.00
2024-02-20T06:44:02.980Z,989.00
2024-02-20T06:45:25.780Z,989.00
2024-02-20T06:46:03.025Z,990.00
2024-02-20T06:47:02.969Z,997.00
2024-02-20T06:48:03.095Z,1012.00
2024-02-20T06:49:03.092Z,1030.00
2024-02-20T06:50:03.140Z,1064.00
2024-02-20T06:51:03.008Z,1088.00
2024-02-20T06:52:03.033Z,1104.00
2024-02-20T06:53:02.982Z,1121.00
2024-02-20T06:54:02.981Z,1133.00
2024-02-20T06:55:02.985Z,1136.00
2024-02-20T06:56:03.033Z,1155.00
2024-02-20T06:57:02.999Z,1159.00
2024-02-20T06:58:02.994Z,1167.00
2024-02-20T06:59:03.805Z,1183.00
2024-02-20T07:00:02.987Z,1186.00
2024-02-20T07:01:03.096Z,1209.00
2024-02-20T07:02:02.999Z,1211.00
2024-02-20T07:03:03.068Z,1231.00
2024-02-20T07:04:03.213Z,1233.00
2024-02-20T07:05:03.280Z,1243.00
2024-02-20T07:06:03.410Z,1265.00
2024-02-20T07:07:03.498Z,1275.00
2024-02-20T07:08:03.375Z,1279.00
2024-02-20T07:09:03.419Z,1292.00
2024-02-20T07:10:04.022Z,1309.00
2024-02-20T07:11:03.671Z,1316.00
2024-02-20T07:12:03.640Z,1341.00
2024-02-20T07:13:03.797Z,1346.00
2024-02-20T07:14:03.734Z,1370.00
2024-02-20T07:15:03.813Z,1375.00
2024-02-20T07:16:03.962Z,1392.00
2024-02-20T07:17:03.930Z,1388.00
2024-02-20T07:18:03.981Z,1404.00
2024-02-20T07:19:04.090Z,1418.00
2024-02-20T07:20:04.252Z,1437.00
2024-02-20T07:21:04.205Z,1449.00
2024-02-20T07:22:04.266Z,1461.00
2024-02-20T07:23:04.213Z,1477.00
2024-02-20T07:24:04.278Z,1481.00
2024-02-20T07:25:04.378Z,1508.00
2024-02-20T07:26:04.410Z,1548.00
2024-02-20T07:27:04.440Z,1569.00
2024-02-20T07:28:04.480Z,1570.00
2024-02-20T07:29:04.522Z,1580.00
2024-02-20T07:30:04.576Z,1583.00
2024-02-20T07:31:04.711Z,1588.00
2024-02-20T07:32:04.637Z,1599.00
2024-02-20T07:33:04.868Z,1602.00
2024-02-20T07:34:09.790Z,1615.00
2024-02-20T07:35:05.905Z,1616.00
2024-02-20T07:36:04.973Z,1620.00
2024-02-20T07:37:04.768Z,1627.00
2024-02-20T07:38:04.721Z,1646.00
2024-02-20T07:39:04.754Z,1670.00
2024-02-20T07:40:04.844Z,1669.00
2024-02-20T07:41:05.129Z,1685.00
2024-02-20T07:42:04.735Z,1683.00
2024-02-20T07:43:04.815Z,1688.00
2024-02-20T07:44:04.738Z,1700.00
2024-02-20T07:45:04.739Z,1709.00
2024-02-20T07:46:04.814Z,1717.00
2024-02-20T07:47:04.815Z,1725.00
2024-02-20T07:48:04.874Z,1740.00
2024-02-20T07:49:04.881Z,1756.00
2024-02-20T07:50:04.947Z,1765.00
2024-02-20T07:51:04.842Z,1760.00
2024-02-20T07:52:04.799Z,1779.00
2024-02-20T07:53:04.781Z,1778.00
2024-02-20T07:54:04.730Z,1776.00
2024-02-20T07:55:04.830Z,1785.00
2024-02-20T07:56:04.832Z,1782.00
2024-02-20T07:57:04.786Z,1777.00
2024-02-20T07:58:04.822Z,1788.00
2024-02-20T07:59:04.805Z,1788.00
2024-02-20T08:00:04.808Z,1780.00
2024-02-20T08:01:04.958Z,1784.00
2024-02-20T08:02:04.913Z,1786.00
2024-02-20T08:03:04.866Z,1789.00
2024-02-20T08:04:04.984Z,1810.00
2024-02-20T08:05:05.032Z,1804.00
2024-02-20T08:06:04.897Z,1805.00
2024-02-20T08:07:04.978Z,1805.00
2024-02-20T08:08:04.973Z,1793.00
2024-02-20T08:09:04.888Z,1807.00
2024-02-20T08:10:04.925Z,1808.00
2024-02-20T08:11:05.006Z,1812.00
2024-02-20T08:12:04.929Z,1813.00
2024-02-20T08:13:04.967Z,1810.00
2024-02-20T08:14:04.933Z,1805.00
2024-02-20T08:15:04.925Z,1819.00
2024-02-20T08:16:05.026Z,1839.00
2024-02-20T08:17:04.967Z,1849.00
2024-02-20T08:18:05.040Z,1850.00
2024-02-20T08:19:05.125Z,1860.00
2024-02-20T08:20:05.064Z,1884.00
2024-02-20T08:21:05.072Z,1916.00
2024-02-20T08:22:05.083Z,1965.00
2024-02-20T08:23:04.997Z,1975.00
2024-02-20T08:24:05.009Z,1986.00
2024-02-20T08:25:05.085Z,1984.00
2024-02-20T08:26:05.067Z,1995.00
2024-02-20T08:27:05.136Z,2001.00
2024-02-20T08:28:05.166Z,2013.00
2024-02-20T08:29:05.145Z,2022.00
2024-02-20T08:30:05.188Z,2025.00
2024-02-20T08:31:05.277Z,2032.00
2024-02-20T08:32:05.225Z,1792.00
2024-02-20T08:33:05.266Z,1535.00
2024-02-20T08:34:06.719Z,1349.00
2024-02-20T08:35:05.612Z,1205.00
2024-02-20T08:36:05.502Z,1064.00
2024-02-20T08:37:05.561Z,959.00
2024-02-20T08:38:05.626Z,874.00
2024-02-20T08:39:05.652Z,788.00
2024-02-20T08:40:05.711Z,709.00
2024-02-20T08:41:05.706Z,659.00
2024-02-20T08:42:05.751Z,637.00
2024-02-20T08:43:05.847Z,616.00
2024-02-20T08:44:05.878Z,600.00
2024-02-20T08:45:05.906Z,600.00
2024-02-20T08:46:05.999Z,600.00
2024-02-20T08:47:05.921Z,600.00
2024-02-20T08:48:06.126Z,601.00
2024-02-20T08:49:06.207Z,622.00
2024-02-20T08:50:06.051Z,648.00
2024-02-20T08:51:06.068Z,642.00
2024-02-20T08:52:06.170Z,630.00
2024-02-20T08:53:06.210Z,638.00
2024-02-20T08:54:06.265Z,658.00
2024-02-20T08:55:06.285Z,698.00
2024-02-20T08:56:06.313Z,741.00
2024-02-20T08:57:06.349Z,790.00
2024-02-20T08:58:06.423Z,831.00
2024-02-20T08:59:06.433Z,867.00
2024-02-20T09:00:06.453Z,900.00
2024-02-20T09:01:06.573Z,923.00
2024-02-20T09:02:06.582Z,933.00
2024-02-20T09:03:06.598Z,965.00
2024-02-20T09:04:06.728Z,976.00
2024-02-20T09:05:06.739Z,988.00
2024-02-20T09:06:06.916Z,1003.00
2024-02-20T09:07:06.894Z,1004.00
2024-02-20T09:08:06.862Z,1013.00
2024-02-20T09:09:06.820Z,1023.00
2024-02-20T09:10:06.873Z,1034.00
2024-02-20T09:11:06.900Z,1056.00
2024-02-20T09:12:06.903Z,1060.00
2024-02-20T09:13:07.045Z,1078.00
2024-02-20T09:14:07.028Z,1103.00
2024-02-20T09:15:07.116Z,1117.00
2024-02-20T09:16:07.290Z,1129.00
2024-02-20T09:17:07.248Z,1155.00
2024-02-20T09:18:08.524Z,1167.00
2024-02-20T09:19:07.359Z,1183.00
2024-02-20T09:20:07.491Z,1192.00
2024-02-20T09:21:07.546Z,1221.00
2024-02-20T09:22:07.535Z,1235.00
2024-02-20T09:23:07.592Z,1258.00
2024-02-20T09:24:07.566Z,1275.00
2024-02-20T09:25:07.665Z,1297.00
2024-02-20T09:26:07.886Z,1313.00
2024-02-20T09:27:07.711Z,1313.00
2024-02-20T09:28:07.813Z,1328.00
2024-02-20T09:29:07.761Z,1345.00
2024-02-20T09:30:07.892Z,1347.00
2024-02-20T09:31:07.900Z,1358.00
2024-02-20T09:32:07.867Z,1369.00
2024-02-20T09:33:08.089Z,1380.00
2024-02-20T09:34:08.056Z,1388.00
2024-02-20T09:35:07.968Z,1403.00
2024-02-20T09:36:07.991Z,1416.00
2024-02-20T09:37:08.047Z,1424.00
2024-02-20T09:38:08.001Z,1440.00
2024-02-20T09:39:08.033Z,1437.00
2024-02-20T09:40:08.119Z,1202.00
2024-02-20T09:41:08.149Z,1015.00
2024-02-20T09:42:08.189Z,912.00
2024-02-20T09:43:08.284Z,888.00
2024-02-20T09:44:08.298Z,913.00
2024-02-20T09:45:08.370Z,1002.00
2024-02-20T09:46:08.520Z,1066.00
2024-02-20T09:47:08.597Z,1083.00
2024-02-20T09:48:08.680Z,1108.00
2024-02-20T09:49:08.782Z,1144.00
2024-02-20T09:50:08.690Z,1177.00
2024-02-20T09:51:08.805Z,1205.00
2024-02-20T09:52:08.825Z,1224.00
2024-02-20T09:53:08.787Z,1247.00
2024-02-20T09:54:08.816Z,1271.00
2024-02-20T09:55:08.878Z,1289.00
2024-02-20T09:56:08.862Z,1299.00
2024-02-20T09:57:08.882Z,1333.00
2024-02-20T09:58:08.929Z,1347.00
2024-02-20T09:59:08.944Z,1386.00
2024-02-20T10:00:08.936Z,1415.00
2024-02-20T10:01:09.116Z,1428.00
2024-02-20T10:02:09.028Z,1444.00
2024-02-20T10:03:32.075Z,1471.00
2024-02-20T10:04:09.697Z,1473.00
2024-02-20T10:05:09.064Z,1480.00
2024-02-20T10:06:08.981Z,1493.00
2024-02-20T10:07:09.098Z,1517.00
2024-02-20T10:08:08.963Z,1553.00
2024-02-20T10:09:09.008Z,1579.00
2024-02-20T10:10:09.008Z,1590.00
2024-02-20T10:11:09.254Z,1610.00
2024-02-20T10:12:09.062Z,1631.00
2024-02-20T10:13:09.048Z,1646.00
2024-02-20T10:14:08.991Z,1660.00
2024-02-20T10:15:08.978Z,1673.00
2024-02-20T10:16:09.000Z,1687.00
2024-02-20T10:17:08.995Z,1715.00
2024-02-20T10:18:09.133Z,1735.00
2024-02-20T10:19:09.087Z,1733.00
2024-02-20T10:20:09.157Z,1748.00
2024-02-20T10:21:08.996Z,1759.00
2024-02-20T10:22:09.067Z,1771.00
2024-02-20T10:23:09.067Z,1791.00
2024-02-20T10:24:11.898Z,1793.00
2024-02-20T10:25:10.011Z,1794.00
2024-02-20T10:26:09.001Z,1798.00
2024-02-20T10:27:09.010Z,1807.00
2024-02-20T10:28:09.286Z,1822.00
2024-02-20T10:29:08.997Z,1840.00
2024-02-20T10:30:09.042Z,1851.00
2024-02-20T10:31:09.051Z,1852.00
2024-02-20T10:32:08.994Z,1852.00
2024-02-20T10:33:09.275Z,1860.00
2024-02-20T10:34:14.434Z,1867.00
2024-02-20T10:35:10.174Z,1868.00
2024-02-20T10:36:09.008Z,1869.00
2024-02-20T10:37:09.077Z,1871.00
2024-02-20T10:38:09.001Z,1876.00
2024-02-20T10:39:09.009Z,1891.00
2024-02-20T10:40:17.913Z,1884.00
2024-02-20T10:41:10.059Z,1884.00
2024-02-20T10:42:09.057Z,1883.00
2024-02-20T10:43:09.058Z,1879.00
2024-02-20T10:44:09.072Z,1882.00
2024-02-20T10:45:09.029Z,1875.00
2024-02-20T10:46:09.086Z,1865.00
2024-02-20T10:47:09.009Z,1857.00
2024-02-20T10:48:09.116Z,1855.00
2024-02-20T10:49:09.123Z,1847.00
2024-02-20T10:50:09.064Z,1837.00
2024-02-20T10:51:09.025Z,1830.00
2024-02-20T10:52:09.069Z,1826.00
2024-02-20T10:53:09.024Z,1822.00
2024-02-20T10:54:09.042Z,1809.00
2024-02-20T10:55:18.089Z,1812.00
2024-02-20T10:56:10.065Z,1812.00
2024-02-20T10:57:09.021Z,1807.00
2024-02-20T10:58:09.123Z,1801.00
2024-02-20T10:59:09.088Z,1789.00
2024-02-20T11:00:09.029Z,1801.00
2024-02-20T11:01:09.170Z,1791.00
2024-02-20T11:02:09.137Z,1777.00
2024-02-20T11:03:09.108Z,1786.00
2024-02-20T11:05:09.126Z,1758.00
2024-02-20T11:06:09.074Z,1758.00
2024-02-20T11:07:09.263Z,1742.00
2024-02-20T11:08:10.157Z,1747.00
2024-02-20T11:09:09.060Z,1737.00
2024-02-20T11:10:09.124Z,1731.00
2024-02-20T11:11:09.111Z,1732.00
2024-02-20T11:12:09.059Z,1731.00
2024-02-20T11:13:09.122Z,1717.00
2024-02-20T11:14:09.077Z,1713.00
2024-02-20T11:15:09.072Z,1705.00
2024-02-20T11:16:09.135Z,1703.00
2024-02-20T11:17:17.027Z,1697.00
2024-02-20T11:18:13.851Z,1698.00
2024-02-20T11:19:09.350Z,1698.00
2024-02-20T11:20:09.299Z,1697.00
2024-02-20T11:21:09.122Z,1699.00
2024-02-20T11:22:09.484Z,1693.00
2024-02-20T11:23:09.098Z,1679.00
2024-02-20T11:24:09.096Z,1673.00
2024-02-20T11:25:09.123Z,1666.00
2024-02-20T11:26:09.768Z,1657.00
2024-02-20T11:27:09.105Z,1652.00
2024-02-20T11:28:09.106Z,1651.00
2024-02-20T11:29:09.100Z,1636.00
2024-02-20T11:30:09.103Z,1627.00
2024-02-20T11:31:09.277Z,1640.00
2024-02-20T11:32:09.117Z,1617.00
2024-02-20T11:33:09.142Z,1616.00
2024-02-20T11:34:09.206Z,1612.00
2024-02-20T11:35:09.308Z,1602.00
2024-02-20T11:36:09.076Z,1611.00
2024-02-20T11:37:09.121Z,1604.00
2024-02-20T11:38:09.187Z,1598.00
2024-02-20T11:39:09.075Z,1589.00
2024-02-20T11:40:31.139Z,1582.00
2024-02-20T11:41:09.355Z,1583.00
2024-02-20T11:42:09.084Z,1587.00
2024-02-20T11:43:09.153Z,1591.00
2024-02-20T11:44:09.086Z,1589.00
2024-02-20T11:45:09.092Z,1584.00
2024-02-20T11:46:09.187Z,1573.00
2024-02-20T11:47:10.205Z,1571.00
2024-02-20T11:48:09.266Z,1571.00
2024-02-20T11:49:09.190Z,1556.00
2024-02-20T11:50:09.277Z,1557.00
2024-02-20T11:51:09.149Z,1537.00
2024-02-20T11:52:09.269Z,1534.00
2024-02-20T11:53:09.219Z,1528.00
2024-02-20T11:54:09.272Z,1520.00
2024-02-20T11:55:09.259Z,1518.00
2024-02-20T11:56:09.262Z,1513.00
2024-02-20T11:57:09.238Z,1509.00
2024-02-20T11:58:09.243Z,1502.00
2024-02-20T11:59:09.298Z,1495.00
2024-02-20T12:00:09.280Z,1495.00
2024-02-20T12:01:09.360Z,1486.00
2024-02-20T12:02:09.430Z,1488.00
2024-02-20T12:03:09.287Z,1474.00
2024-02-20T12:04:09.419Z,1470.00
2024-02-20T12:05:09.370Z,1473.00
2024-02-20T12:06:10.158Z,1461.00
2024-02-20T12:07:09.416Z,1452.00
2024-02-20T12:08:09.466Z,1455.00
2024-02-20T12:09:09.328Z,1451.00
2024-02-20T12:10:09.361Z,1450.00
2024-02-20T12:11:09.482Z,1440.00
2024-02-20T12:12:09.424Z,1441.00
2024-02-20T12:13:09.388Z,1447.00
2024-02-20T12:14:09.383Z,1432.00
2024-02-20T12:15:09.400Z,1432.00
2024-02-20T12:16:09.446Z,1427.00
2024-02-20T12:17:09.530Z,1422.00
2024-02-20T12:18:09.628Z,1429.00
2024-02-20T12:19:14.038Z,1408.00
2024-02-20T12:20:10.537Z,1409.00
2024-02-20T12:21:09.467Z,1411.00
2024-02-20T12:22:09.612Z,1411.00